sensor_id;sensor_type;location;lat;lon;timestamp;P1;durP1;ratioP1;P2;durP2;ratioP2
71572;SDS011;59408;51.032;9.410;2022-12-26T00:01:09;7.10;;;3.25;;
71572;SDS011;59408;51.032;9.410;2022-12-26T00:03:37;7.85;;;3.50;;
71572;SDS011;59408;51.032;9.410;2022-12-26T00:06:10;6.95;;;3.22;;
71572;SDS011;59408;51.032;9.410;2022-12-26T00:08:37;8.03;;;3.00;;
71572;SDS011;59408;51.032;9.410;2022-12-26T00:11:04;7.82;;;3.22;;
71572;SDS011;59408;51.032;9.410;2022-12-26T00:13:31;7.00;;;3.00;;
71572;SDS011;59408;51.032;9.410;2022-12-26T00:16:08;7.78;;;3.42;;
71572;SDS011;59408;51.032;9.410;2022-12-26T00:18:36;6.85;;;3.10;;
71572;SDS011;59408;51.032;9.410;2022-12-26T00:21:03;7.60;;;2.90;;
71572;SDS011;59408;51.032;9.410;2022-12-26T00:23:30;6.60;;;2.75;;
71572;SDS011;59408;51.032;9.410;2022-12-26T00:26:00;6.57;;;2.97;;
71572;SDS011;59408;51.032;9.410;2022-12-26T00:28:27;8.45;;;2.78;;
71572;SDS011;59408;51.032;9.410;2022-12-26T00:30:54;6.70;;;2.95;;
71572;SDS011;59408;51.032;9.410;2022-12-26T00:33:22;6.80;;;2.33;;
71572;SDS011;59408;51.032;9.410;2022-12-26T00:35:48;5.95;;;2.63;;
71572;SDS011;59408;51.032;9.410;2022-12-26T00:38:15;6.95;;;3.03;;
71572;SDS011;59408;51.032;9.410;2022-12-26T00:40:42;7.03;;;2.63;;
71572;SDS011;59408;51.032;9.410;2022-12-26T00:43:08;6.80;;;2.80;;
71572;SDS011;59408;51.032;9.410;2022-12-26T00:45:35;7.90;;;2.90;;
71572;SDS011;59408;51.032;9.410;2022-12-26T00:48:02;7.95;;;2.60;;
71572;SDS011;59408;51.032;9.410;2022-12-26T00:50:30;7.30;;;2.60;;
71572;SDS011;59408;51.032;9.410;2022-12-26T00:53:00;6.80;;;3.17;;
71572;SDS011;59408;51.032;9.410;2022-12-26T00:55:27;6.38;;;2.90;;
71572;SDS011;59408;51.032;9.410;2022-12-26T00:57:53;6.97;;;3.00;;
71572;SDS011;59408;51.032;9.410;2022-12-26T01:00:20;6.53;;;2.80;;
71572;SDS011;59408;51.032;9.410;2022-12-26T01:02:47;7.57;;;3.20;;
71572;SDS011;59408;51.032;9.410;2022-12-26T01:05:14;6.82;;;3.00;;
71572;SDS011;59408;51.032;9.410;2022-12-26T01:07:42;6.93;;;3.05;;
71572;SDS011;59408;51.032;9.410;2022-12-26T01:10:29;6.53;;;3.03;;
71572;SDS011;59408;51.032;9.410;2022-12-26T01:12:55;6.45;;;2.70;;
71572;SDS011;59408;51.032;9.410;2022-12-26T01:15:22;7.13;;;2.90;;
71572;SDS011;59408;51.032;9.410;2022-12-26T01:17:48;6.55;;;2.80;;
71572;SDS011;59408;51.032;9.410;2022-12-26T01:20:15;7.32;;;2.90;;
71572;SDS011;59408;51.032;9.410;2022-12-26T01:22:43;6.70;;;2.70;;
71572;SDS011;59408;51.032;9.410;2022-12-26T01:25:10;7.47;;;2.67;;
71572;SDS011;59408;51.032;9.410;2022-12-26T01:27:37;8.60;;;3.20;;
71572;SDS011;59408;51.032;9.410;2022-12-26T01:30:04;8.88;;;2.88;;
71572;SDS011;59408;51.032;9.410;2022-12-26T01:32:32;7.32;;;3.10;;
71572;SDS011;59408;51.032;9.410;2022-12-26T01:34:58;6.40;;;3.10;;
71572;SDS011;59408;51.032;9.410;2022-12-26T01:37:25;7.30;;;2.80;;
71572;SDS011;59408;51.032;9.410;2022-12-26T01:39:53;7.43;;;3.13;;
71572;SDS011;59408;51.032;9.410;2022-12-26T01:42:20;7.57;;;2.97;;
71572;SDS011;59408;51.032;9.410;2022-12-26T01:44:54;7.30;;;2.92;;
71572;SDS011;59408;51.032;9.410;2022-12-26T01:47:36;6.63;;;2.50;;
71572;SDS011;59408;51.032;9.410;2022-12-26T01:50:06;6.25;;;2.65;;
71572;SDS011;59408;51.032;9.410;2022-12-26T01:52:46;7.20;;;2.75;;
71572;SDS011;59408;51.032;9.410;2022-12-26T01:55:16;6.88;;;2.83;;
71572;SDS011;59408;51.032;9.410;2022-12-26T01:57:55;7.70;;;3.15;;
71572;SDS011;59408;51.032;9.410;2022-12-26T02:00:24;7.57;;;2.70;;
71572;SDS011;59408;51.032;9.410;2022-12-26T02:02:51;7.15;;;2.75;;
71572;SDS011;59408;51.032;9.410;2022-12-26T02:05:18;6.80;;;3.00;;
71572;SDS011;59408;51.032;9.410;2022-12-26T02:07:45;6.50;;;3.00;;
71572;SDS011;59408;51.032;9.410;2022-12-26T02:10:13;6.90;;;2.85;;
71572;SDS011;59408;51.032;9.410;2022-12-26T02:12:47;6.40;;;2.83;;
71572;SDS011;59408;51.032;9.410;2022-12-26T02:15:15;6.32;;;2.75;;
71572;SDS011;59408;51.032;9.410;2022-12-26T02:17:43;7.85;;;3.50;;
71572;SDS011;59408;51.032;9.410;2022-12-26T02:20:13;8.45;;;2.67;;
71572;SDS011;59408;51.032;9.410;2022-12-26T02:22:49;7.03;;;3.20;;
71572;SDS011;59408;51.032;9.410;2022-12-26T02:25:43;6.67;;;2.90;;
71572;SDS011;59408;51.032;9.410;2022-12-26T02:28:33;6.75;;;2.97;;
71572;SDS011;59408;51.032;9.410;2022-12-26T02:31:16;7.70;;;3.53;;
71572;SDS011;59408;51.032;9.410;2022-12-26T02:33:49;8.48;;;3.13;;
71572;SDS011;59408;51.032;9.410;2022-12-26T02:39:30;8.53;;;3.13;;
71572;SDS011;59408;51.032;9.410;2022-12-26T02:42:16;8.75;;;2.92;;
71572;SDS011;59408;51.032;9.410;2022-12-26T02:44:55;8.95;;;3.30;;
71572;SDS011;59408;51.032;9.410;2022-12-26T02:47:29;6.50;;;2.70;;
71572;SDS011;59408;51.032;9.410;2022-12-26T02:50:03;6.82;;;2.85;;
71572;SDS011;59408;51.032;9.410;2022-12-26T02:52:41;7.50;;;2.70;;
71572;SDS011;59408;51.032;9.410;2022-12-26T02:55:21;8.43;;;2.90;;
71572;SDS011;59408;51.032;9.410;2022-12-26T02:57:53;7.90;;;3.22;;
71572;SDS011;59408;51.032;9.410;2022-12-26T03:00:27;7.43;;;3.08;;
71572;SDS011;59408;51.032;9.410;2022-12-26T03:02:55;6.80;;;2.95;;
71572;SDS011;59408;51.032;9.410;2022-12-26T03:05:28;7.13;;;2.60;;
71572;SDS011;59408;51.032;9.410;2022-12-26T03:07:57;6.60;;;2.67;;
71572;SDS011;59408;51.032;9.410;2022-12-26T03:10:27;6.45;;;2.63;;
71572;SDS011;59408;51.032;9.410;2022-12-26T03:12:59;6.63;;;2.60;;
71572;SDS011;59408;51.032;9.410;2022-12-26T03:15:30;8.55;;;3.22;;
71572;SDS011;59408;51.032;9.410;2022-12-26T03:18:01;7.37;;;2.63;;
71572;SDS011;59408;51.032;9.410;2022-12-26T03:20:32;7.35;;;3.03;;
71572;SDS011;59408;51.032;9.410;2022-12-26T03:23:02;6.43;;;2.95;;
71572;SDS011;59408;51.032;9.410;2022-12-26T03:25:35;7.25;;;2.97;;
71572;SDS011;59408;51.032;9.410;2022-12-26T03:28:07;7.95;;;3.10;;
71572;SDS011;59408;51.032;9.410;2022-12-26T03:30:34;6.70;;;2.97;;
71572;SDS011;59408;51.032;9.410;2022-12-26T03:33:02;7.90;;;3.15;;
71572;SDS011;59408;51.032;9.410;2022-12-26T03:35:29;6.78;;;2.95;;
71572;SDS011;59408;51.032;9.410;2022-12-26T03:37:59;6.57;;;2.50;;
71572;SDS011;59408;51.032;9.410;2022-12-26T03:40:39;6.72;;;2.60;;
71572;SDS011;59408;51.032;9.410;2022-12-26T03:43:19;6.93;;;2.67;;
71572;SDS011;59408;51.032;9.410;2022-12-26T03:45:58;6.30;;;2.40;;
71572;SDS011;59408;51.032;9.410;2022-12-26T03:48:40;7.13;;;2.78;;
71572;SDS011;59408;51.032;9.410;2022-12-26T03:51:18;7.18;;;2.53;;
71572;SDS011;59408;51.032;9.410;2022-12-26T03:53:51;6.78;;;2.80;;
71572;SDS011;59408;51.032;9.410;2022-12-26T03:56:24;8.97;;;2.80;;
71572;SDS011;59408;51.032;9.410;2022-12-26T03:58:59;7.18;;;2.65;;
71572;SDS011;59408;51.032;9.410;2022-12-26T04:01:33;6.78;;;2.88;;
71572;SDS011;59408;51.032;9.410;2022-12-26T04:04:04;6.05;;;2.50;;
71572;SDS011;59408;51.032;9.410;2022-12-26T04:06:37;6.97;;;2.92;;
71572;SDS011;59408;51.032;9.410;2022-12-26T04:09:15;6.43;;;2.33;;
71572;SDS011;59408;51.032;9.410;2022-12-26T04:11:47;6.03;;;2.60;;
71572;SDS011;59408;51.032;9.410;2022-12-26T04:14:17;7.78;;;2.83;;
71572;SDS011;59408;51.032;9.410;2022-12-26T04:16:55;6.55;;;2.97;;
71572;SDS011;59408;51.032;9.410;2022-12-26T04:22:21;7.33;;;2.93;;
71572;SDS011;59408;51.032;9.410;2022-12-26T04:24:58;8.85;;;3.15;;
71572;SDS011;59408;51.032;9.410;2022-12-26T04:27:32;8.48;;;2.97;;
71572;SDS011;59408;51.032;9.410;2022-12-26T04:29:59;6.85;;;3.00;;
71572;SDS011;59408;51.032;9.410;2022-12-26T04:32:30;6.82;;;2.30;;
71572;SDS011;59408;51.032;9.410;2022-12-26T04:35:03;7.57;;;3.20;;
71572;SDS011;59408;51.032;9.410;2022-12-26T04:37:32;6.20;;;2.50;;
71572;SDS011;59408;51.032;9.410;2022-12-26T04:40:03;6.40;;;2.85;;
71572;SDS011;59408;51.032;9.410;2022-12-26T04:42:36;6.90;;;2.85;;
71572;SDS011;59408;51.032;9.410;2022-12-26T04:45:05;7.75;;;3.08;;
71572;SDS011;59408;51.032;9.410;2022-12-26T04:47:33;6.13;;;2.77;;
71572;SDS011;59408;51.032;9.410;2022-12-26T04:50:05;9.07;;;2.45;;
71572;SDS011;59408;51.032;9.410;2022-12-26T04:52:32;7.35;;;2.70;;
71572;SDS011;59408;51.032;9.410;2022-12-26T04:54:58;8.00;;;2.88;;
71572;SDS011;59408;51.032;9.410;2022-12-26T04:57:25;7.50;;;2.72;;
71572;SDS011;59408;51.032;9.410;2022-12-26T04:59:52;7.63;;;2.90;;
71572;SDS011;59408;51.032;9.410;2022-12-26T05:02:18;8.43;;;3.05;;
71572;SDS011;59408;51.032;9.410;2022-12-26T05:04:45;8.43;;;2.88;;
71572;SDS011;59408;51.032;9.410;2022-12-26T05:07:15;8.20;;;3.35;;
71572;SDS011;59408;51.032;9.410;2022-12-26T05:09:45;7.68;;;2.85;;
71572;SDS011;59408;51.032;9.410;2022-12-26T05:12:14;7.53;;;2.80;;
71572;SDS011;59408;51.032;9.410;2022-12-26T05:14:41;7.43;;;3.00;;
71572;SDS011;59408;51.032;9.410;2022-12-26T05:17:09;8.90;;;2.83;;
71572;SDS011;59408;51.032;9.410;2022-12-26T05:19:37;6.80;;;2.55;;
71572;SDS011;59408;51.032;9.410;2022-12-26T05:22:04;6.55;;;2.35;;
71572;SDS011;59408;51.032;9.410;2022-12-26T05:24:32;8.80;;;2.93;;
71572;SDS011;59408;51.032;9.410;2022-12-26T05:27:02;8.85;;;3.03;;
71572;SDS011;59408;51.032;9.410;2022-12-26T05:29:29;7.45;;;2.83;;
71572;SDS011;59408;51.032;9.410;2022-12-26T05:31:55;7.72;;;2.67;;
71572;SDS011;59408;51.032;9.410;2022-12-26T05:34:22;6.35;;;2.72;;
71572;SDS011;59408;51.032;9.410;2022-12-26T05:36:49;7.10;;;2.70;;
71572;SDS011;59408;51.032;9.410;2022-12-26T05:39:18;6.80;;;2.40;;
71572;SDS011;59408;51.032;9.410;2022-12-26T05:41:46;6.45;;;2.90;;
71572;SDS011;59408;51.032;9.410;2022-12-26T05:44:13;7.72;;;2.35;;
71572;SDS011;59408;51.032;9.410;2022-12-26T05:46:40;7.03;;;2.75;;
71572;SDS011;59408;51.032;9.410;2022-12-26T05:49:07;8.10;;;2.67;;
71572;SDS011;59408;51.032;9.410;2022-12-26T05:51:34;6.50;;;2.50;;
71572;SDS011;59408;51.032;9.410;2022-12-26T05:54:01;8.05;;;2.40;;
71572;SDS011;59408;51.032;9.410;2022-12-26T05:56:28;7.18;;;2.35;;
71572;SDS011;59408;51.032;9.410;2022-12-26T05:58:56;6.45;;;2.53;;
71572;SDS011;59408;51.032;9.410;2022-12-26T06:01:25;6.63;;;2.70;;
71572;SDS011;59408;51.032;9.410;2022-12-26T06:03:53;8.23;;;2.60;;
71572;SDS011;59408;51.032;9.410;2022-12-26T06:06:22;8.02;;;2.97;;
71572;SDS011;59408;51.032;9.410;2022-12-26T06:08:50;7.60;;;3.00;;
71572;SDS011;59408;51.032;9.410;2022-12-26T06:11:18;7.13;;;2.90;;
71572;SDS011;59408;51.032;9.410;2022-12-26T06:13:45;6.97;;;2.57;;
71572;SDS011;59408;51.032;9.410;2022-12-26T06:16:14;8.13;;;2.85;;
71572;SDS011;59408;51.032;9.410;2022-12-26T06:18:42;8.55;;;3.00;;
71572;SDS011;59408;51.032;9.410;2022-12-26T06:21:10;7.47;;;2.70;;
71572;SDS011;59408;51.032;9.410;2022-12-26T06:23:38;6.25;;;2.47;;
71572;SDS011;59408;51.032;9.410;2022-12-26T06:26:05;7.47;;;2.77;;
71572;SDS011;59408;51.032;9.410;2022-12-26T06:28:32;5.97;;;2.70;;
71572;SDS011;59408;51.032;9.410;2022-12-26T06:31:02;7.78;;;2.67;;
71572;SDS011;59408;51.032;9.410;2022-12-26T06:33:32;8.82;;;3.08;;
71572;SDS011;59408;51.032;9.410;2022-12-26T06:36:03;6.78;;;2.75;;
71572;SDS011;59408;51.032;9.410;2022-12-26T06:38:30;6.23;;;2.50;;
71572;SDS011;59408;51.032;9.410;2022-12-26T06:40:57;6.80;;;2.65;;
71572;SDS011;59408;51.032;9.410;2022-12-26T06:43:23;7.97;;;2.80;;
71572;SDS011;59408;51.032;9.410;2022-12-26T06:45:53;6.45;;;2.58;;
71572;SDS011;59408;51.032;9.410;2022-12-26T06:48:21;7.28;;;2.95;;
71572;SDS011;59408;51.032;9.410;2022-12-26T06:50:49;6.40;;;2.60;;
71572;SDS011;59408;51.032;9.410;2022-12-26T06:53:16;7.00;;;2.90;;
71572;SDS011;59408;51.032;9.410;2022-12-26T06:55:42;6.90;;;2.53;;
71572;SDS011;59408;51.032;9.410;2022-12-26T06:58:09;6.32;;;2.63;;
71572;SDS011;59408;51.032;9.410;2022-12-26T07:00:36;7.93;;;2.53;;
71572;SDS011;59408;51.032;9.410;2022-12-26T07:03:03;6.63;;;2.10;;
71572;SDS011;59408;51.032;9.410;2022-12-26T07:05:31;7.78;;;2.60;;
71572;SDS011;59408;51.032;9.410;2022-12-26T07:08:01;8.88;;;2.45;;
71572;SDS011;59408;51.032;9.410;2022-12-26T07:10:28;7.82;;;2.53;;
71572;SDS011;59408;51.032;9.410;2022-12-26T07:12:59;7.07;;;2.35;;
71572;SDS011;59408;51.032;9.410;2022-12-26T07:15:26;6.43;;;2.40;;
71572;SDS011;59408;51.032;9.410;2022-12-26T07:17:52;6.38;;;2.55;;
71572;SDS011;59408;51.032;9.410;2022-12-26T07:20:19;7.28;;;2.60;;
71572;SDS011;59408;51.032;9.410;2022-12-26T07:22:45;5.70;;;2.40;;
71572;SDS011;59408;51.032;9.410;2022-12-26T07:25:13;6.97;;;2.55;;
71572;SDS011;59408;51.032;9.410;2022-12-26T07:27:40;7.03;;;2.30;;
71572;SDS011;59408;51.032;9.410;2022-12-26T07:30:07;6.55;;;2.13;;
71572;SDS011;59408;51.032;9.410;2022-12-26T07:32:34;5.82;;;2.33;;
71572;SDS011;59408;51.032;9.410;2022-12-26T07:35:01;7.93;;;2.30;;
71572;SDS011;59408;51.032;9.410;2022-12-26T07:37:28;7.13;;;2.60;;
71572;SDS011;59408;51.032;9.410;2022-12-26T07:39:54;6.33;;;2.10;;
71572;SDS011;59408;51.032;9.410;2022-12-26T07:42:26;6.07;;;2.22;;
71572;SDS011;59408;51.032;9.410;2022-12-26T07:44:52;5.75;;;2.20;;
71572;SDS011;59408;51.032;9.410;2022-12-26T07:47:19;5.95;;;2.10;;
71572;SDS011;59408;51.032;9.410;2022-12-26T07:49:45;7.53;;;2.28;;
71572;SDS011;59408;51.032;9.410;2022-12-26T07:52:12;6.53;;;2.43;;
71572;SDS011;59408;51.032;9.410;2022-12-26T07:54:39;8.07;;;2.67;;
71572;SDS011;59408;51.032;9.410;2022-12-26T07:57:05;7.78;;;2.40;;
71572;SDS011;59408;51.032;9.410;2022-12-26T07:59:53;6.25;;;2.45;;
71572;SDS011;59408;51.032;9.410;2022-12-26T08:02:20;6.28;;;2.40;;
71572;SDS011;59408;51.032;9.410;2022-12-26T08:04:47;6.07;;;2.03;;
71572;SDS011;59408;51.032;9.410;2022-12-26T08:07:14;6.68;;;2.08;;
71572;SDS011;59408;51.032;9.410;2022-12-26T08:09:40;5.90;;;2.13;;
71572;SDS011;59408;51.032;9.410;2022-12-26T08:12:07;6.18;;;2.03;;
71572;SDS011;59408;51.032;9.410;2022-12-26T08:14:35;6.57;;;2.63;;
71572;SDS011;59408;51.032;9.410;2022-12-26T08:17:03;8.33;;;2.57;;
71572;SDS011;59408;51.032;9.410;2022-12-26T08:19:30;5.43;;;1.00;;
71572;SDS011;59408;51.032;9.410;2022-12-26T08:21:57;3.88;;;0.60;;
71572;SDS011;59408;51.032;9.410;2022-12-26T08:24:24;4.65;;;0.80;;
71572;SDS011;59408;51.032;9.410;2022-12-26T08:26:50;2.13;;;0.70;;
71572;SDS011;59408;51.032;9.410;2022-12-26T08:29:17;2.70;;;0.70;;
71572;SDS011;59408;51.032;9.410;2022-12-26T08:31:43;4.00;;;0.65;;
71572;SDS011;59408;51.032;9.410;2022-12-26T08:34:12;4.85;;;1.10;;
71572;SDS011;59408;51.032;9.410;2022-12-26T08:36:41;4.55;;;1.10;;
71572;SDS011;59408;51.032;9.410;2022-12-26T08:39:07;4.50;;;1.10;;
71572;SDS011;59408;51.032;9.410;2022-12-26T08:41:34;4.27;;;1.10;;
71572;SDS011;59408;51.032;9.410;2022-12-26T08:44:01;4.80;;;1.27;;
71572;SDS011;59408;51.032;9.410;2022-12-26T08:46:47;6.53;;;1.27;;
71572;SDS011;59408;51.032;9.410;2022-12-26T08:49:15;5.32;;;1.45;;
71572;SDS011;59408;51.032;9.410;2022-12-26T08:51:42;5.32;;;2.20;;
71572;SDS011;59408;51.032;9.410;2022-12-26T08:54:09;5.50;;;1.40;;
71572;SDS011;59408;51.032;9.410;2022-12-26T08:56:36;6.00;;;1.10;;
71572;SDS011;59408;51.032;9.410;2022-12-26T08:59:03;4.68;;;1.08;;
71572;SDS011;59408;51.032;9.410;2022-12-26T09:01:30;4.18;;;0.90;;
71572;SDS011;59408;51.032;9.410;2022-12-26T09:03:58;3.63;;;1.08;;
71572;SDS011;59408;51.032;9.410;2022-12-26T09:06:27;3.70;;;1.00;;
71572;SDS011;59408;51.032;9.410;2022-12-26T09:08:57;4.20;;;0.90;;
71572;SDS011;59408;51.032;9.410;2022-12-26T09:11:24;3.78;;;1.13;;
71572;SDS011;59408;51.032;9.410;2022-12-26T09:13:52;4.30;;;1.20;;
71572;SDS011;59408;51.032;9.410;2022-12-26T09:16:20;4.25;;;1.10;;
71572;SDS011;59408;51.032;9.410;2022-12-26T09:18:51;3.83;;;0.83;;
71572;SDS011;59408;51.032;9.410;2022-12-26T09:21:19;4.70;;;1.00;;
71572;SDS011;59408;51.032;9.410;2022-12-26T09:23:47;3.03;;;0.90;;
71572;SDS011;59408;51.032;9.410;2022-12-26T09:26:14;4.85;;;1.02;;
71572;SDS011;59408;51.032;9.410;2022-12-26T09:28:43;2.95;;;0.70;;
71572;SDS011;59408;51.032;9.410;2022-12-26T09:31:12;3.40;;;0.80;;
71572;SDS011;59408;51.032;9.410;2022-12-26T09:33:40;3.53;;;0.90;;
71572;SDS011;59408;51.032;9.410;2022-12-26T09:36:08;3.47;;;1.00;;
71572;SDS011;59408;51.032;9.410;2022-12-26T09:38:40;3.13;;;0.80;;
71572;SDS011;59408;51.032;9.410;2022-12-26T09:41:12;2.88;;;0.93;;
71572;SDS011;59408;51.032;9.410;2022-12-26T09:43:49;3.40;;;0.80;;
71572;SDS011;59408;51.032;9.410;2022-12-26T09:46:26;3.67;;;0.82;;
71572;SDS011;59408;51.032;9.410;2022-12-26T09:48:58;3.47;;;0.90;;
71572;SDS011;59408;51.032;9.410;2022-12-26T09:51:28;2.67;;;0.70;;
71572;SDS011;59408;51.032;9.410;2022-12-26T09:53:58;2.80;;;0.98;;
71572;SDS011;59408;51.032;9.410;2022-12-26T09:56:28;2.93;;;0.93;;
71572;SDS011;59408;51.032;9.410;2022-12-26T09:59:17;3.50;;;0.75;;
71572;SDS011;59408;51.032;9.410;2022-12-26T10:01:46;2.40;;;0.70;;
71572;SDS011;59408;51.032;9.410;2022-12-26T10:04:18;2.92;;;0.90;;
71572;SDS011;59408;51.032;9.410;2022-12-26T10:06:57;2.72;;;0.70;;
71572;SDS011;59408;51.032;9.410;2022-12-26T10:09:43;3.40;;;1.00;;
71572;SDS011;59408;51.032;9.410;2022-12-26T10:12:23;2.90;;;0.90;;
71572;SDS011;59408;51.032;9.410;2022-12-26T10:15:02;4.07;;;1.35;;
71572;SDS011;59408;51.032;9.410;2022-12-26T10:17:39;3.70;;;0.90;;
71572;SDS011;59408;51.032;9.410;2022-12-26T10:20:15;3.70;;;1.00;;
71572;SDS011;59408;51.032;9.410;2022-12-26T10:25:41;3.97;;;1.10;;
71572;SDS011;59408;51.032;9.410;2022-12-26T10:28:17;3.08;;;0.90;;
71572;SDS011;59408;51.032;9.410;2022-12-26T10:30:53;3.58;;;1.00;;
71572;SDS011;59408;51.032;9.410;2022-12-26T10:33:28;3.00;;;1.00;;
71572;SDS011;59408;51.032;9.410;2022-12-26T10:36:02;3.63;;;0.80;;
71572;SDS011;59408;51.032;9.410;2022-12-26T10:38:31;3.35;;;1.15;;
71572;SDS011;59408;51.032;9.410;2022-12-26T10:41:02;4.00;;;1.23;;
71572;SDS011;59408;51.032;9.410;2022-12-26T10:43:37;4.65;;;1.30;;
71572;SDS011;59408;51.032;9.410;2022-12-26T10:46:12;5.53;;;2.20;;
71572;SDS011;59408;51.032;9.410;2022-12-26T10:48:50;9.33;;;3.50;;
71572;SDS011;59408;51.032;9.410;2022-12-26T10:51:18;3.97;;;1.10;;
71572;SDS011;59408;51.032;9.410;2022-12-26T10:53:46;4.75;;;1.50;;
71572;SDS011;59408;51.032;9.410;2022-12-26T10:56:15;4.35;;;1.23;;
71572;SDS011;59408;51.032;9.410;2022-12-26T10:58:57;5.22;;;1.83;;
71572;SDS011;59408;51.032;9.410;2022-12-26T11:01:32;7.87;;;3.07;;
71572;SDS011;59408;51.032;9.410;2022-12-26T11:04:02;11.52;;;5.60;;
71572;SDS011;59408;51.032;9.410;2022-12-26T11:06:30;7.75;;;3.30;;
71572;SDS011;59408;51.032;9.410;2022-12-26T11:08:59;6.80;;;2.65;;
71572;SDS011;59408;51.032;9.410;2022-12-26T11:11:26;6.38;;;1.65;;
71572;SDS011;59408;51.032;9.410;2022-12-26T11:13:57;5.23;;;1.93;;
71572;SDS011;59408;51.032;9.410;2022-12-26T11:16:29;5.22;;;1.77;;
71572;SDS011;59408;51.032;9.410;2022-12-26T11:18:59;5.88;;;1.90;;
71572;SDS011;59408;51.032;9.410;2022-12-26T11:21:27;5.40;;;1.90;;
71572;SDS011;59408;51.032;9.410;2022-12-26T11:24:10;5.50;;;1.58;;
71572;SDS011;59408;51.032;9.410;2022-12-26T11:26:42;6.00;;;1.97;;
71572;SDS011;59408;51.032;9.410;2022-12-26T11:29:11;5.47;;;1.80;;
71572;SDS011;59408;51.032;9.410;2022-12-26T11:31:39;5.38;;;1.88;;
71572;SDS011;59408;51.032;9.410;2022-12-26T11:34:10;5.90;;;1.55;;
71572;SDS011;59408;51.032;9.410;2022-12-26T11:36:44;5.57;;;1.80;;
71572;SDS011;59408;51.032;9.410;2022-12-26T11:39:18;5.60;;;1.80;;
71572;SDS011;59408;51.032;9.410;2022-12-26T11:41:47;5.35;;;1.77;;
71572;SDS011;59408;51.032;9.410;2022-12-26T11:44:17;5.82;;;2.25;;
71572;SDS011;59408;51.032;9.410;2022-12-26T11:46:48;5.13;;;1.90;;
71572;SDS011;59408;51.032;9.410;2022-12-26T11:49:20;5.22;;;1.75;;
71572;SDS011;59408;51.032;9.410;2022-12-26T11:51:50;5.33;;;1.67;;
71572;SDS011;59408;51.032;9.410;2022-12-26T11:54:32;5.05;;;1.30;;
71572;SDS011;59408;51.032;9.410;2022-12-26T11:57:02;6.22;;;2.25;;
71572;SDS011;59408;51.032;9.410;2022-12-26T11:59:39;5.93;;;2.22;;
71572;SDS011;59408;51.032;9.410;2022-12-26T12:02:13;6.85;;;2.33;;
71572;SDS011;59408;51.032;9.410;2022-12-26T12:04:47;6.77;;;2.60;;
71572;SDS011;59408;51.032;9.410;2022-12-26T12:07:17;5.93;;;1.98;;
71572;SDS011;59408;51.032;9.410;2022-12-26T12:09:57;8.23;;;3.03;;
71572;SDS011;59408;51.032;9.410;2022-12-26T12:12:33;7.75;;;2.38;;
71572;SDS011;59408;51.032;9.410;2022-12-26T12:15:09;8.60;;;3.88;;
71572;SDS011;59408;51.032;9.410;2022-12-26T12:17:45;6.97;;;2.33;;
71572;SDS011;59408;51.032;9.410;2022-12-26T12:20:23;6.85;;;2.97;;
71572;SDS011;59408;51.032;9.410;2022-12-26T12:23:11;6.38;;;2.50;;
71572;SDS011;59408;51.032;9.410;2022-12-26T12:25:52;11.98;;;5.43;;
71572;SDS011;59408;51.032;9.410;2022-12-26T12:28:31;5.65;;;2.28;;
71572;SDS011;59408;51.032;9.410;2022-12-26T12:31:16;6.93;;;2.03;;
71572;SDS011;59408;51.032;9.410;2022-12-26T12:33:56;10.48;;;4.95;;
71572;SDS011;59408;51.032;9.410;2022-12-26T12:36:32;8.48;;;3.58;;
71572;SDS011;59408;51.032;9.410;2022-12-26T12:39:06;5.40;;;1.50;;
71572;SDS011;59408;51.032;9.410;2022-12-26T12:41:40;4.45;;;1.50;;
71572;SDS011;59408;51.032;9.410;2022-12-26T12:44:27;5.67;;;2.10;;
71572;SDS011;59408;51.032;9.410;2022-12-26T12:47:04;16.02;;;6.47;;
71572;SDS011;59408;51.032;9.410;2022-12-26T12:49:45;7.43;;;2.15;;
71572;SDS011;59408;51.032;9.410;2022-12-26T12:52:22;5.15;;;2.00;;
71572;SDS011;59408;51.032;9.410;2022-12-26T12:57:49;5.70;;;1.77;;
71572;SDS011;59408;51.032;9.410;2022-12-26T13:00:21;4.95;;;1.65;;
71572;SDS011;59408;51.032;9.410;2022-12-26T13:02:54;5.10;;;1.67;;
71572;SDS011;59408;51.032;9.410;2022-12-26T13:05:27;5.20;;;1.58;;
71572;SDS011;59408;51.032;9.410;2022-12-26T13:08:01;4.50;;;1.67;;
71572;SDS011;59408;51.032;9.410;2022-12-26T13:10:33;4.37;;;1.70;;
71572;SDS011;59408;51.032;9.410;2022-12-26T13:13:05;4.43;;;1.60;;
71572;SDS011;59408;51.032;9.410;2022-12-26T13:15:39;5.47;;;1.33;;
71572;SDS011;59408;51.032;9.410;2022-12-26T13:18:11;6.18;;;1.55;;
71572;SDS011;59408;51.032;9.410;2022-12-26T13:20:43;5.90;;;1.70;;
71572;SDS011;59408;51.032;9.410;2022-12-26T13:23:15;5.77;;;2.20;;
71572;SDS011;59408;51.032;9.410;2022-12-26T13:25:47;5.07;;;1.77;;
71572;SDS011;59408;51.032;9.410;2022-12-26T13:28:29;6.85;;;1.80;;
71572;SDS011;59408;51.032;9.410;2022-12-26T13:31:03;6.03;;;1.67;;
71572;SDS011;59408;51.032;9.410;2022-12-26T13:33:31;5.10;;;1.65;;
71572;SDS011;59408;51.032;9.410;2022-12-26T13:35:59;5.47;;;1.80;;
71572;SDS011;59408;51.032;9.410;2022-12-26T13:41:27;5.68;;;1.90;;
71572;SDS011;59408;51.032;9.410;2022-12-26T13:44:00;5.85;;;1.83;;
71572;SDS011;59408;51.032;9.410;2022-12-26T13:46:32;6.28;;;1.67;;
71572;SDS011;59408;51.032;9.410;2022-12-26T13:49:03;5.10;;;1.80;;
71572;SDS011;59408;51.032;9.410;2022-12-26T13:51:47;5.72;;;2.60;;
71572;SDS011;59408;51.032;9.410;2022-12-26T13:54:24;6.68;;;3.10;;
71572;SDS011;59408;51.032;9.410;2022-12-26T13:57:03;6.00;;;2.47;;
71572;SDS011;59408;51.032;9.410;2022-12-26T13:59:58;8.10;;;3.28;;
71572;SDS011;59408;51.032;9.410;2022-12-26T14:06:03;6.47;;;2.90;;
71572;SDS011;59408;51.032;9.410;2022-12-26T14:08:44;7.25;;;2.40;;
71572;SDS011;59408;51.032;9.410;2022-12-26T14:11:29;5.28;;;2.05;;
71572;SDS011;59408;51.032;9.410;2022-12-26T14:14:09;5.32;;;2.22;;
71572;SDS011;59408;51.032;9.410;2022-12-26T14:16:46;7.57;;;2.17;;
71572;SDS011;59408;51.032;9.410;2022-12-26T14:19:25;4.50;;;1.70;;
71572;SDS011;59408;51.032;9.410;2022-12-26T14:22:06;5.32;;;1.80;;
71572;SDS011;59408;51.032;9.410;2022-12-26T14:24:42;6.90;;;3.10;;
71572;SDS011;59408;51.032;9.410;2022-12-26T14:27:22;6.38;;;2.60;;
71572;SDS011;59408;51.032;9.410;2022-12-26T14:30:03;7.53;;;3.57;;
71572;SDS011;59408;51.032;9.410;2022-12-26T14:32:43;5.30;;;2.00;;
71572;SDS011;59408;51.032;9.410;2022-12-26T14:35:18;8.48;;;4.35;;
71572;SDS011;59408;51.032;9.410;2022-12-26T14:37:55;6.00;;;2.50;;
71572;SDS011;59408;51.032;9.410;2022-12-26T14:40:31;6.75;;;2.33;;
71572;SDS011;59408;51.032;9.410;2022-12-26T14:43:11;5.07;;;2.00;;
71572;SDS011;59408;51.032;9.410;2022-12-26T14:45:57;5.80;;;2.25;;
71572;SDS011;59408;51.032;9.410;2022-12-26T14:48:52;13.40;;;6.50;;
71572;SDS011;59408;51.032;9.410;2022-12-26T14:51:25;9.27;;;3.53;;
71572;SDS011;59408;51.032;9.410;2022-12-26T15:00:12;5.82;;;2.22;;
71572;SDS011;59408;51.032;9.410;2022-12-26T15:02:52;9.25;;;2.10;;
71572;SDS011;59408;51.032;9.410;2022-12-26T15:05:49;5.40;;;2.05;;
71572;SDS011;59408;51.032;9.410;2022-12-26T15:11:26;5.13;;;1.50;;
71572;SDS011;59408;51.032;9.410;2022-12-26T15:14:15;7.20;;;2.10;;
71572;SDS011;59408;51.032;9.410;2022-12-26T15:17:04;5.90;;;1.30;;
71572;SDS011;59408;51.032;9.410;2022-12-26T15:19:50;5.07;;;1.10;;
71572;SDS011;59408;51.032;9.410;2022-12-26T15:22:58;4.75;;;1.80;;
71572;SDS011;59408;51.032;9.410;2022-12-26T15:25:49;5.60;;;1.30;;
71572;SDS011;59408;51.032;9.410;2022-12-26T15:34:44;5.47;;;1.83;;
71572;SDS011;59408;51.032;9.410;2022-12-26T15:37:22;5.75;;;1.83;;
71572;SDS011;59408;51.032;9.410;2022-12-26T15:40:09;4.87;;;1.60;;
71572;SDS011;59408;51.032;9.410;2022-12-26T15:42:43;5.70;;;1.60;;
71572;SDS011;59408;51.032;9.410;2022-12-26T15:45:25;6.13;;;1.90;;
71572;SDS011;59408;51.032;9.410;2022-12-26T15:48:01;5.30;;;1.75;;
71572;SDS011;59408;51.032;9.410;2022-12-26T15:50:33;6.32;;;2.05;;